Flight Track Log - Related Links

Times and Time Zones

All times are in EDT time to prevent confusion due to time zone crossing. See the JZA8279 flight status page for this flight to view local times or setup timezone preferences in your user account.

Time Position Orientation Groundspeed Altitude Reporting Facility
EDT Latitude Longitude Course Direction KTS MPH feet Rate Location/Type
Wed 02:03:27 PM 54.2333 -130.4500 136° Southeast 140 161 1,600  Level Vancouver Center
Wed 02:04:27 PM 54.2000 -130.4167 150° Southeast 140 161 3,100 1,400 Climbing Vancouver Center
Wed 02:05:27 PM 54.1667 -130.3667 139° Southeast 140 161 4,400 1,300 Climbing Vancouver Center
Wed 02:06:27 PM 54.1333 -130.3333 150° Southeast 140 161 5,700 1,250 Climbing Vancouver Center
Wed 02:07:27 PM 54.1167 -130.3000 130° Southeast 140 161 6,900 1,200 Climbing Vancouver Center
Wed 02:08:00 PM 54.0318 -130.0229 136° Southeast  Level FlightAware Approximate
Wed 02:08:27 PM 54.0833 -130.2667 150° Southeast 140 161 8,100  Level Vancouver Center
Wed 02:09:27 PM 54.0500 -130.2000 130° Southeast 140 161 9,400 1,250 Climbing Vancouver Center
Wed 02:10:27 PM 54.0167 -130.1667 150° Southeast 140 161 10,600 950 Climbing Vancouver Center
Wed 02:11:27 PM 53.9833 -130.1333 150° Southeast 140 161 11,300 600 Climbing Vancouver Center
Wed 02:12:27 PM 53.9500 -130.0667 130° Southeast 170 196 11,800 750 Climbing Vancouver Center
Wed 02:13:27 PM 53.9000 -130.0333 159° South 180 207 12,800 850 Climbing Vancouver Center
Wed 02:14:27 PM 53.8667 -129.9667 130° Southeast 190 219 13,500 750 Climbing Vancouver Center
Wed 02:15:27 PM 53.8333 -129.9167 138° Southeast 190 219 14,300 800 Climbing Vancouver Center
Wed 02:16:27 PM 53.7833 -129.8500 142° Southeast 190 219 15,100 800 Climbing Vancouver Center
Wed 02:17:27 PM 53.7500 -129.8167 149° Southeast 190 219 15,900 800 Climbing Vancouver Center
Wed 02:18:27 PM 53.7000 -129.7500 142° Southeast 190 219 16,700 750 Climbing Vancouver Center
Wed 02:19:27 PM 53.6500 -129.6833 142° Southeast 200 230 17,400 850 Climbing Vancouver Center
Wed 02:20:27 PM 53.6167 -129.6333 138° Southeast 200 230 18,400 850 Climbing Vancouver Center
Wed 02:21:27 PM 53.5833 -129.5833 138° Southeast 190 219 19,100 650 Climbing Vancouver Center
Wed 02:22:27 PM 53.5333 -129.5333 149° Southeast 190 219 19,700 600 Climbing Vancouver Center
Wed 02:23:27 PM 53.4833 -129.4667 142° Southeast 200 230 20,300 550 Climbing Vancouver Center
Wed 02:24:27 PM 53.4500 -129.4333 149° Southeast 190 219 20,800 600 Climbing Vancouver Center
Wed 02:25:27 PM 53.4000 -129.3667 142° Southeast 190 219 21,500 550 Climbing Vancouver Center
Wed 02:26:27 PM 53.3667 -129.3167 138° Southeast 190 219 21,900 400 Climbing Vancouver Center
Wed 02:27:27 PM 53.3167 -129.2500 141° Southeast 190 219 22,300 400 Climbing Vancouver Center
Wed 02:28:27 PM 53.2833 -129.2167 149° Southeast 200 230 22,700 350 Climbing Vancouver Center
Wed 02:29:27 PM 53.2333 -129.1500 141° Southeast 190 219 23,000 150 Climbing Vancouver Center
Wed 02:30:27 PM 53.1833 -129.1000 149° Southeast 200 230 23,000  Level Vancouver Center
Wed 02:31:27 PM 53.1333 -129.0333 141° Southeast 220 253 23,000  Level Vancouver Center
Wed 02:32:27 PM 53.0833 -128.9667 141° Southeast 220 253 23,000  Level Vancouver Center
Wed 02:33:27 PM 53.0333 -128.9000 141° Southeast 230 265 23,000  Level Vancouver Center
Wed 02:34:27 PM 52.9833 -128.8500 149° Southeast 230 265 23,000  Level Vancouver Center
Wed 02:35:27 PM 52.9500 -128.7833 130° Southeast 230 265 23,000  Level Vancouver Center
Wed 02:36:27 PM 52.8833 -128.7167 149° Southeast 230 265 23,000  Level Vancouver Center
Wed 02:37:27 PM 52.8333 -128.6667 149° Southeast 230 265 23,000  Level Vancouver Center
Wed 02:38:27 PM 52.7833 -128.5667 130° Southeast 240 276 23,000  Level Vancouver Center
Wed 02:39:27 PM 52.7167 -128.5167 156° South 240 276 23,000  Level Vancouver Center
Wed 02:40:27 PM 52.6667 -128.4500 141° Southeast 230 265 23,000  Level Vancouver Center
Wed 02:41:27 PM 52.6167 -128.4000 149° Southeast 230 265 23,000  Level Vancouver Center
Wed 02:42:27 PM 52.5667 -128.3333 141° Southeast 230 265 23,000  Level Vancouver Center
Wed 02:43:27 PM 52.5167 -128.2667 141° Southeast 230 265 23,000  Level Vancouver Center
Wed 02:44:27 PM 52.4667 -128.2167 149° Southeast 230 265 23,000  Level Vancouver Center
Wed 02:45:27 PM 52.4167 -128.1500 141° Southeast 230 265 23,000  Level Vancouver Center
Wed 02:46:27 PM 52.3667 -128.1000 149° Southeast 230 265 23,000  Level Vancouver Center
Wed 02:47:27 PM 52.3000 -128.0333 149° Southeast 230 265 23,000  Level Vancouver Center
Wed 02:48:27 PM 52.2500 -127.9667 141° Southeast 240 276 23,000  Level Vancouver Center
Wed 02:49:27 PM 52.2000 -127.8833 134° Southeast 230 265 23,000  Level Vancouver Center
Wed 02:50:27 PM 52.1500 -127.8333 148° Southeast 230 265 23,000  Level Vancouver Center
Wed 02:51:27 PM 52.1000 -127.7667 141° Southeast 230 265 23,000  Level Vancouver Center
Wed 02:52:27 PM 52.0500 -127.7000 141° Southeast 240 276 23,000  Level Vancouver Center
Wed 02:53:27 PM 51.9833 -127.6500 155° Southeast 240 276 23,000  Level Vancouver Center
Wed 02:54:27 PM 51.9333 -127.5833 141° Southeast 240 276 23,000  Level Vancouver Center
Wed 02:55:27 PM 51.8833 -127.5333 148° Southeast 240 276 23,000  Level Vancouver Center
Wed 02:56:27 PM 51.8167 -127.4500 142° Southeast 240 276 23,000  Level Vancouver Center
Wed 02:57:27 PM 51.7667 -127.3833 140° Southeast 240 276 23,000  Level Vancouver Center
Wed 02:58:27 PM 51.7000 -127.3333 155° Southeast 240 276 23,000  Level Vancouver Center
Wed 02:59:27 PM 51.6667 -127.2667 129° Southeast 250 288 23,000  Level Vancouver Center
Wed 03:00:27 PM 51.6167 -127.2167 148° Southeast 240 276 23,000  Level Vancouver Center
Wed 03:01:27 PM 51.5500 -127.1333 142° Southeast 250 288 23,000  Level Vancouver Center
Wed 03:02:27 PM 51.5000 -127.0667 140° Southeast 250 288 23,000  Level Vancouver Center
Wed 03:03:27 PM 51.4333 -127.0167 155° Southeast 250 288 23,000  Level Vancouver Center
Wed 03:04:27 PM 51.3833 -126.9500 140° Southeast 250 288 23,000  Level Vancouver Center
Wed 03:05:27 PM 51.3167 -126.9000 155° Southeast 250 288 23,000  Level Vancouver Center
Wed 03:06:27 PM 51.2667 -126.8167 134° Southeast 250 288 23,000  Level Vancouver Center
Wed 03:07:27 PM 51.2167 -126.7500 140° Southeast 250 288 23,000  Level Vancouver Center
Wed 03:08:27 PM 51.1500 -126.7000 155° Southeast 250 288 23,000  Level Vancouver Center
Wed 03:09:27 PM 51.1000 -126.6500 148° Southeast 250 288 23,000  Level Vancouver Center
Wed 03:10:27 PM 51.0500 -126.5667 134° Southeast 250 288 23,000  Level Vancouver Center
Wed 03:11:27 PM 51.0000 -126.5000 140° Southeast 240 276 23,000  Level Vancouver Center
Wed 03:12:27 PM 50.9500 -126.4167 134° Southeast 250 288 23,000  Level Vancouver Center
Wed 03:13:27 PM 50.9167 -126.3167 118° Southeast 250 288 23,000  Level Vancouver Center
Wed 03:14:27 PM 50.8667 -126.2333 134° Southeast 260 299 23,000  Level Vancouver Center
Wed 03:15:27 PM 50.8333 -126.1333 118° Southeast 250 288 23,000  Level Vancouver Center
Wed 03:16:27 PM 50.7833 -126.0500 133° Southeast 260 299 23,000  Level Vancouver Center
Wed 03:17:27 PM 50.7500 -125.9333 114° Southeast 250 288 23,000  Level Vancouver Center
Wed 03:18:27 PM 50.7167 -125.8500 122° Southeast 260 299 23,000  Level Vancouver Center
Wed 03:19:27 PM 50.6667 -125.7500 128° Southeast 250 288 23,000  Level Vancouver Center
Wed 03:20:27 PM 50.6500 -125.6667 107° East 250 288 23,000  Level Vancouver Center
Wed 03:21:27 PM 50.6000 -125.5833 133° Southeast 260 299 23,000  Level Vancouver Center
Wed 03:22:27 PM 50.5667 -125.4833 118° Southeast 260 299 23,000  Level Vancouver Center
Wed 03:23:27 PM 50.5167 -125.3667 124° Southeast 260 299 23,000  Level Vancouver Center
Wed 03:24:27 PM 50.4833 -125.3000 128° Southeast 260 299 23,000  Level Vancouver Center
Wed 03:25:27 PM 50.4500 -125.1833 114° Southeast 260 299 23,000  Level Vancouver Center
Wed 03:26:27 PM 50.4000 -125.1000 133° Southeast 260 299 23,000  Level Vancouver Center
Wed 03:27:27 PM 50.3667 -125.0000 118° Southeast 260 299 23,000  Level Vancouver Center
Wed 03:28:27 PM 50.3167 -124.9167 133° Southeast 260 299 23,000  Level Vancouver Center
Wed 03:29:27 PM 50.2833 -124.8167 118° Southeast 260 299 23,000  Level Vancouver Center
Wed 03:30:27 PM 50.2333 -124.7167 128° Southeast 260 299 23,000  Level Vancouver Center
Wed 03:31:27 PM 50.2000 -124.6333 122° Southeast 260 299 23,000  Level Vancouver Center
Wed 03:32:27 PM 50.1500 -124.5333 128° Southeast 260 299 23,000  Level Vancouver Center
Wed 03:33:27 PM 50.1167 -124.4500 122° Southeast 260 299 23,000 -550 Level Vancouver Center
Wed 03:34:27 PM 50.0667 -124.3500 128° Southeast 270 311 21,900 -1,100 Descending Vancouver Center
Wed 03:35:27 PM 50.0167 -124.2333 124° Southeast 300 345 20,800 -1,200 Descending Vancouver Center
Wed 03:36:27 PM 49.9667 -124.1333 128° Southeast 300 345 19,500 -1,200 Descending Vancouver Center
Wed 03:37:27 PM 49.9333 -124.0333 117° Southeast 300 345 18,400 -1,150 Descending Vancouver Center
Wed 03:38:27 PM 49.8833 -123.9333 128° Southeast 300 345 17,200 -1,150 Descending Vancouver Center
Wed 03:39:27 PM 49.8333 -123.8167 124° Southeast 290 334 16,100 -1,050 Descending Vancouver Center
Wed 03:40:27 PM 49.7833 -123.7167 128° Southeast 300 345 15,100 -1,050 Descending Vancouver Center
Wed 03:41:27 PM 49.7167 -123.6500 147° Southeast 270 311 14,000 -1,000 Descending Vancouver Center
Wed 03:42:27 PM 49.6500 -123.6000 154° Southeast 270 311 13,100 -1,050 Descending Vancouver Center
Wed 03:43:27 PM 49.5833 -123.5333 147° Southeast 260 299 11,900 -1,350 Descending Vancouver Center
Wed 03:44:27 PM 49.5167 -123.5167 171° South 250 288 10,400 -1,600 Descending Vancouver Center
Wed 03:45:27 PM 49.4500 -123.4833 162° South 250 288 8,700 -1,700 Descending Vancouver Center
Wed 03:46:27 PM 49.3833 -123.4833 180° South 240 276 7,000 -1,700 Descending Vancouver Center
Wed 03:47:27 PM 49.3333 -123.4667 168° South 240 276 5,300 -1,600 Descending Vancouver Center
Wed 03:48:27 PM 49.2667 -123.4333 162° South 220 253 3,800 -1,250 Descending Vancouver Center
Wed 03:49:27 PM 49.2167 -123.4167 168° South 200 230 2,800 -1,000 Descending Vancouver Center
Wed 03:50:27 PM 49.2000 -123.3333 107° East 190 219 1,800 -1,000 Descending Vancouver Center

Login

Don't have an account? Register now (free) for customized features, flight alerts, and more!